Time;durP1;ratioP1;P1;durP2;ratioP2;P2;SDS_P1;SDS_P2;PMS_P1;PMS_P2;Temp;Humidity;BMP_temperature;BMP_pressure;BME280_temperature;BME280_humidity;BME280_pressure;Samples;Min_cycle;Max_cycle;Signal;HPM_P1;HPM_P2
2021/12/21 00:00:28;;;;;;;;;;;;;;;;;;5095611;28;19939;-75
2021/12/21 00:02:54;;;;;;;;;;;;;;;;;;5095701;28;20354;-75
2021/12/21 00:05:21;;;;;;;;;;;;;;;;;;5095590;28;19920;-75
2021/12/21 00:07:47;;;;;;;;;;;;;;;;;;5095320;28;19923;-75
2021/12/21 00:10:13;;;;;;;;;;;;;;;;;;5095607;28;19919;-75
2021/12/21 00:12:48;;;;;;;;;;;;;;;;;;5095438;28;19912;-75
2021/12/21 00:18:04;;;;;;;;;;;;;;;;;;5095301;28;19923;-75
2021/12/21 00:23:48;;;;;;;;;;;;;;;;;;5095118;28;19916;-75
2021/12/21 00:26:08;;;;;;;;;;;;;;;;;;5092976;28;19927;-75
2021/12/21 00:28:41;;;;;;;;;;;;;;;;;;5095062;28;19999;-75
2021/12/21 00:31:06;;;;;;;;;;;;;;;;;;5094972;28;19924;-75
2021/12/21 00:33:32;;;;;;;;;;;;;;;;;;5093851;28;19916;-75
2021/12/21 00:35:57;;;;;;;;;;;;;;;;;;5094243;28;19916;-75
2021/12/21 00:38:23;;;;;;;;;;;;;;;;;;5093453;28;19912;-74
2021/12/21 00:40:48;;;;;;;;;;;;;;;;;;5095134;28;19968;-75
2021/12/21 00:43:13;;;;;;;;;;;;;;;;;;5094615;28;19923;-75
2021/12/21 00:45:39;;;;;;;;;;;;;;;;;;5095206;28;19916;-75
2021/12/21 00:48:04;;;;;;;;;;;;;;;;;;5094440;28;19931;-75
2021/12/21 00:50:29;;;;;;;;;;;;;;;;;;5094703;28;20374;-75
2021/12/21 00:52:55;;;;;;;;;;;;;;;;;;5094719;28;19962;-75
2021/12/21 00:55:21;;;;;;;;;;;;;;;;;;5094561;28;19923;-75
2021/12/21 00:57:47;;;;;;;;;;;;;;;;;;5094677;28;20007;-75
2021/12/21 01:00:13;;;;;;;;;;;;;;;;;;5093330;28;19999;-75
2021/12/21 01:02:40;;;;;;;;;;;;;;;;;;5094358;28;19916;-75
2021/12/21 01:05:12;;;;;;;;;;;;;;;;;;5094336;28;19924;-75
2021/12/21 01:07:42;;;;;;;;;;;;;;;;;;5094399;28;19916;-75
2021/12/21 01:10:46;;;;;;;;;;;;;;;;;;5093622;28;20361;-75
2021/12/21 01:18:18;;;;;;;;;;;;;;;;;;5093871;28;19924;-75
2021/12/21 01:20:50;;;;;;;;;;;;;;;;;;5094253;28;20006;-75
2021/12/21 01:23:41;;;;;;;;;;;;;;;;;;5094042;28;19920;-75
2021/12/21 01:39:04;;;;;;;;;;;;;;;;;;5093833;28;20392;-75
2021/12/21 01:41:38;;;;;;;;;;;;;;;;;;5094083;28;19916;-75
2021/12/21 01:44:26;;;;;;;;;;;;;;;;;;5092751;28;19959;-75
2021/12/21 01:49:42;;;;;;;;;;;;;;;;;;5093809;28;19927;-75
2021/12/21 01:52:09;;;;;;;;;;;;;;;;;;5093801;28;19916;-75
2021/12/21 01:54:34;;;;;;;;;;;;;;;;;;5093674;28;19923;-75
2021/12/21 01:56:59;;;;;;;;;;;;;;;;;;5093729;28;19916;-75
2021/12/21 01:59:25;;;;;;;;;;;;;;;;;;5093726;28;19927;-75
2021/12/21 02:01:53;;;;;;;;;;;;;;;;;;5093360;28;20014;-76
2021/12/21 02:04:18;;;;;;;;;;;;;;;;;;5093438;28;20018;-75
2021/12/21 02:06:45;;;;;;;;;;;;;;;;;;5093620;28;19920;-76
2021/12/21 02:09:11;;;;;;;;;;;;;;;;;;5093826;28;19920;-75
2021/12/21 02:11:37;;;;;;;;;;;;;;;;;;5093447;28;20247;-75
2021/12/21 02:14:05;;;;;;;;;;;;;;;;;;5093166;28;19923;-76
2021/12/21 02:16:39;;;;;;;;;;;;;;;;;;5093534;28;19971;-75
2021/12/21 02:19:16;;;;;;;;;;;;;;;;;;5093623;28;20011;-75
2021/12/21 02:21:50;;;;;;;;;;;;;;;;;;5092140;28;19999;-76
2021/12/21 02:24:20;;;;;;;;;;;;;;;;;;5092278;28;19924;-76
2021/12/21 02:27:17;;;;;;;;;;;;;;;;;;5093487;28;20406;-76
2021/12/21 02:29:40;;;;;;;;;;;;;;;;;;5093237;28;19917;-75
2021/12/21 02:32:06;;;;;;;;;;;;;;;;;;5093533;28;19923;-75
2021/12/21 02:34:31;;;;;;;;;;;;;;;;;;5093477;28;19916;-75
2021/12/21 02:36:57;;;;;;;;;;;;;;;;;;5093099;28;19916;-75
2021/12/21 02:39:23;;;;;;;;;;;;;;;;;;5093414;28;19924;-76
2021/12/21 02:41:49;;;;;;;;;;;;;;;;;;5093184;28;19923;-76
2021/12/21 02:44:14;;;;;;;;;;;;;;;;;;5093227;28;19920;-75
2021/12/21 02:46:40;;;;;;;;;;;;;;;;;;5093354;28;19922;-75
2021/12/21 02:49:06;;;;;;;;;;;;;;;;;;5092747;28;20010;-76
2021/12/21 02:51:32;;;;;;;;;;;;;;;;;;5092925;28;19969;-75
2021/12/21 02:53:57;;;;;;;;;;;;;;;;;;5093219;28;19920;-75
2021/12/21 02:56:23;;;;;;;;;;;;;;;;;;5091921;28;20263;-75
2021/12/21 02:58:48;;;;;;;;;;;;;;;;;;5096835;28;19916;-75
2021/12/21 03:01:15;;;;;;;;;;;;;;;;;;5097014;28;19963;-75
2021/12/21 03:03:40;;;;;;;;;;;;;;;;;;5096573;28;19921;-76
2021/12/21 03:06:11;;;;;;;;;;;;;;;;;;5096568;28;20298;-75
2021/12/21 03:08:40;;;;;;;;;;;;;;;;;;5096541;28;19916;-76
2021/12/21 03:11:24;;;;;;;;;;;;;;;;;;5096647;28;20011;-75
2021/12/21 03:14:05;;;;;;;;;;;;;;;;;;5096315;28;20297;-76
2021/12/21 03:16:32;;;;;;;;;;;;;;;;;;5096551;28;20281;-76
2021/12/21 03:18:59;;;;;;;;;;;;;;;;;;5095171;28;20007;-76
2021/12/21 03:21:24;;;;;;;;;;;;;;;;;;5095389;28;19916;-75
2021/12/21 03:23:50;;;;;;;;;;;;;;;;;;5095097;28;19928;-75
2021/12/21 03:26:15;;;;;;;;;;;;;;;;;;5095115;28;20048;-75
2021/12/21 03:28:40;;;;;;;;;;;;;;;;;;5096353;28;19916;-76
2021/12/21 03:31:06;;;;;;;;;;;;;;;;;;5096415;28;19916;-76
2021/12/21 03:33:32;;;;;;;;;;;;;;;;;;5096355;28;20381;-76
2021/12/21 03:36:00;;;;;;;;;;;;;;;;;;5095227;28;20258;-75
2021/12/21 03:38:27;;;;;;;;;;;;;;;;;;5095961;28;20381;-75
2021/12/21 03:40:54;;;;;;;;;;;;;;;;;;5094681;28;19923;-75
2021/12/21 03:43:20;;;;;;;;;;;;;;;;;;5096061;28;19916;-75
2021/12/21 03:45:55;;;;;;;;;;;;;;;;;;5095915;28;19999;-76
2021/12/21 03:48:20;;;;;;;;;;;;;;;;;;5094522;28;19961;-76
2021/12/21 03:50:45;;;;;;;;;;;;;;;;;;5096104;28;19975;-74
2021/12/21 03:53:11;;;;;;;;;;;;;;;;;;5096621;28;19931;-77
2021/12/21 03:55:36;;;;;;;;;;;;;;;;;;5095585;28;19925;-77
2021/12/21 03:58:02;;;;;;;;;;;;;;;;;;5095510;28;20266;-76
2021/12/21 04:00:28;;;;;;;;;;;;;;;;;;5095903;28;19916;-75
2021/12/21 04:02:54;;;;;;;;;;;;;;;;;;5096461;28;19916;-76
2021/12/21 04:05:19;;;;;;;;;;;;;;;;;;5095439;28;19920;-76
2021/12/21 04:07:45;;;;;;;;;;;;;;;;;;5095202;28;19966;-76
2021/12/21 04:10:10;;;;;;;;;;;;;;;;;;5095685;28;19947;-76
2021/12/21 04:12:36;;;;;;;;;;;;;;;;;;5095412;28;19923;-76
2021/12/21 04:15:03;;;;;;;;;;;;;;;;;;5095630;28;19920;-76
2021/12/21 04:17:30;;;;;;;;;;;;;;;;;;5095478;28;19969;-76
2021/12/21 04:19:55;;;;;;;;;;;;;;;;;;5095663;28;19920;-75
2021/12/21 04:22:21;;;;;;;;;;;;;;;;;;5093672;28;19969;-76
2021/12/21 04:24:46;;;;;;;;;;;;;;;;;;5091507;28;20421;-75
2021/12/21 04:27:12;;;;;;;;;;;;;;;;;;5091329;28;19916;-76
2021/12/21 04:29:37;;;;;;;;;;;;;;;;;;5092898;28;20498;-75
2021/12/21 04:32:02;;;;;;;;;;;;;;;;;;5092974;28;19916;-76
2021/12/21 04:34:28;;;;;;;;;;;;;;;;;;5092805;28;19912;-76
2021/12/21 04:36:53;;;;;;;;;;;;;;;;;;5093268;28;19923;-76
2021/12/21 04:39:46;;;;;;;;;;;;;;;;;;5095058;28;20282;-76
2021/12/21 04:42:05;;;;;;;;;;;;;;;;;;5094213;28;19923;-76
2021/12/21 04:44:30;;;;;;;;;;;;;;;;;;5094960;28;19916;-75
2021/12/21 04:46:55;;;;;;;;;;;;;;;;;;5093711;28;19962;-76
2021/12/21 04:49:21;;;;;;;;;;;;;;;;;;5094819;28;19963;-76
2021/12/21 04:51:46;;;;;;;;;;;;;;;;;;5095110;28;19916;-76
2021/12/21 04:54:11;;;;;;;;;;;;;;;;;;5094990;28;20331;-76
2021/12/21 04:56:38;;;;;;;;;;;;;;;;;;5094965;28;19916;-76
2021/12/21 04:59:03;;;;;;;;;;;;;;;;;;5094919;28;20368;-75
2021/12/21 05:01:29;;;;;;;;;;;;;;;;;;5095025;28;19923;-76
2021/12/21 05:03:54;;;;;;;;;;;;;;;;;;5093514;28;19943;-75
2021/12/21 05:06:20;;;;;;;;;;;;;;;;;;5094515;28;19916;-75
2021/12/21 05:08:52;;;;;;;;;;;;;;;;;;5094391;28;19935;-76
2021/12/21 05:11:19;;;;;;;;;;;;;;;;;;5094411;28;20390;-75
2021/12/21 05:13:45;;;;;;;;;;;;;;;;;;5094314;28;19974;-75
2021/12/21 05:16:10;;;;;;;;;;;;;;;;;;5093256;28;19947;-76
2021/12/21 05:18:36;;;;;;;;;;;;;;;;;;5094585;28;20369;-76
2021/12/21 05:21:02;;;;;;;;;;;;;;;;;;5093975;28;20022;-75
2021/12/21 05:23:27;;;;;;;;;;;;;;;;;;5094754;28;20513;-76
2021/12/21 05:25:52;;;;;;;;;;;;;;;;;;5094996;28;19967;-75
2021/12/21 05:28:18;;;;;;;;;;;;;;;;;;5094747;28;20243;-75
2021/12/21 05:30:43;;;;;;;;;;;;;;;;;;5094855;28;20328;-76
2021/12/21 05:33:09;;;;;;;;;;;;;;;;;;5094569;28;19959;-76
2021/12/21 05:35:35;;;;;;;;;;;;;;;;;;5094597;28;19920;-76
2021/12/21 05:38:04;;;;;;;;;;;;;;;;;;5104618;28;19916;-76
2021/12/21 05:40:35;;;;;;;;;;;;;;;;;;5114543;28;19922;-76
2021/12/21 05:43:01;;;;;;;;;;;;;;;;;;5113140;28;19916;-76
2021/12/21 05:45:26;;;;;;;;;;;;;;;;;;5113194;28;20319;-75
2021/12/21 05:47:52;;;;;;;;;;;;;;;;;;5114182;28;19920;-76
2021/12/21 05:50:18;;;;;;;;;;;;;;;;;;5112345;28;19915;-76
2021/12/21 05:52:44;;;;;;;;;;;;;;;;;;5112891;28;19916;-76
2021/12/21 05:55:10;;;;;;;;;;;;;;;;;;5112591;28;20342;-75
2021/12/21 05:57:35;;;;;;;;;;;;;;;;;;5114049;28;20014;-76
2021/12/21 06:00:01;;;;;;;;;;;;;;;;;;5114272;28;19966;-76
2021/12/21 06:02:29;;;;;;;;;;;;;;;;;;5114318;28;19915;-75
2021/12/21 06:04:55;;;;;;;;;;;;;;;;;;5114107;28;19946;-76
2021/12/21 06:07:20;;;;;;;;;;;;;;;;;;5107550;28;20010;-76
2021/12/21 06:09:47;;;;;;;;;;;;;;;;;;5094111;28;19927;-75
2021/12/21 06:12:32;;;;;;;;;;;;;;;;;;5092469;28;20386;-76
2021/12/21 06:25:58;;;;;;;;;;;;;;;;;;5031146;28;20454;-75
2021/12/21 06:28:24;;;;;;;;;;;;;;;;;;5031904;28;19917;-76
2021/12/21 06:30:50;;;;;;;;;;;;;;;;;;5051207;28;19916;-75
2021/12/21 06:33:16;;;;;;;;;;;;;;;;;;5097078;28;19920;-77
2021/12/21 06:35:41;;;;;;;;;;;;;;;;;;5098145;28;20262;-76
2021/12/21 06:38:07;;;;;;;;;;;;;;;;;;5097586;28;19923;-76
2021/12/21 06:40:32;;;;;;;;;;;;;;;;;;5097905;28;19916;-76
2021/12/21 06:43:00;;;;;;;;;;;;;;;;;;5098016;28;19954;-76
2021/12/21 06:45:42;;;;;;;;;;;;;;;;;;5096635;28;19947;-76
2021/12/21 06:53:40;;;;;;;;;;;;;;;;;;5098090;28;19985;-76
2021/12/21 06:56:06;;;;;;;;;;;;;;;;;;5097718;28;19927;-77
2021/12/21 06:58:32;;;;;;;;;;;;;;;;;;5093448;28;19961;-76
2021/12/21 07:00:57;;;;;;;;;;;;;;;;;;5090437;28;19995;-77
2021/12/21 07:03:23;;;;;;;;;;;;;;;;;;5081181;28;20054;-77
2021/12/21 07:05:49;;;;;;;;;;;;;;;;;;5076959;28;20339;-75
2021/12/21 07:08:17;;;;;;;;;;;;;;;;;;5091483;28;19916;-77
2021/12/21 07:10:53;;;;;;;;;;;;;;;;;;5096540;28;19916;-77
2021/12/21 07:18:46;;;;;;;;;;;;;;;;;;5096907;28;19920;-75
2021/12/21 07:21:11;;;;;;;;;;;;;;;;;;5097124;28;20015;-74
2021/12/21 07:23:37;;;;;;;;;;;;;;;;;;5097208;28;19931;-75
2021/12/21 07:26:02;;;;;;;;;;;;;;;;;;5096404;28;19969;-74
2021/12/21 07:28:27;;;;;;;;;;;;;;;;;;5096385;28;20370;-75
2021/12/21 07:30:52;;;;;;;;;;;;;;;;;;5096069;28;19916;-74
2021/12/21 07:33:18;;;;;;;;;;;;;;;;;;5096328;28;19916;-75
2021/12/21 07:35:43;;;;;;;;;;;;;;;;;;5096213;28;19986;-75
2021/12/21 07:38:10;;;;;;;;;;;;;;;;;;5096146;28;19965;-74
2021/12/21 07:40:36;;;;;;;;;;;;;;;;;;5096031;28;19974;-75
2021/12/21 07:43:01;;;;;;;;;;;;;;;;;;5095246;28;20362;-75
2021/12/21 07:45:27;;;;;;;;;;;;;;;;;;5095997;28;20286;-74
2021/12/21 07:47:52;;;;;;;;;;;;;;;;;;5095654;28;19926;-75
2021/12/21 07:50:17;;;;;;;;;;;;;;;;;;5096065;28;19916;-75
2021/12/21 07:52:43;;;;;;;;;;;;;;;;;;5096043;28;19916;-75
2021/12/21 07:55:08;;;;;;;;;;;;;;;;;;5095273;28;19916;-75
2021/12/21 07:57:34;;;;;;;;;;;;;;;;;;5095462;28;19939;-74
2021/12/21 08:00:03;;;;;;;;;;;;;;;;;;5095725;28;19916;-75
2021/12/21 08:02:39;;;;;;;;;;;;;;;;;;5095608;28;20285;-75
2021/12/21 08:05:07;;;;;;;;;;;;;;;;;;5095552;28;20582;-74
2021/12/21 08:07:36;;;;;;;;;;;;;;;;;;5094838;28;19916;-75
2021/12/21 08:10:17;;;;;;;;;;;;;;;;;;5095604;28;20353;-76
2021/12/21 08:12:43;;;;;;;;;;;;;;;;;;5095599;28;19974;-76
2021/12/21 08:15:08;;;;;;;;;;;;;;;;;;5094917;28;19916;-77
2021/12/21 08:17:33;;;;;;;;;;;;;;;;;;5094679;28;19924;-76
2021/12/21 08:19:59;;;;;;;;;;;;;;;;;;5094991;28;19916;-76
2021/12/21 08:22:24;;;;;;;;;;;;;;;;;;5094425;28;19927;-75
2021/12/21 08:24:49;;;;;;;;;;;;;;;;;;5094611;28;20026;-77
2021/12/21 08:27:15;;;;;;;;;;;;;;;;;;5093752;28;19928;-77
2021/12/21 08:29:40;;;;;;;;;;;;;;;;;;5094188;28;20008;-76
2021/12/21 08:32:06;;;;;;;;;;;;;;;;;;5096445;28;19927;-79
2021/12/21 08:34:31;;;;;;;;;;;;;;;;;;5099605;28;19916;-77
2021/12/21 08:36:56;;;;;;;;;;;;;;;;;;5097249;28;19916;-77
2021/12/21 08:39:23;;;;;;;;;;;;;;;;;;5095169;28;19916;-75
2021/12/21 08:41:55;;;;;;;;;;;;;;;;;;5093441;28;19920;-75
2021/12/21 08:44:22;;;;;;;;;;;;;;;;;;5094955;28;20286;-75
2021/12/21 08:46:47;;;;;;;;;;;;;;;;;;5094141;28;19923;-75
2021/12/21 08:49:12;;;;;;;;;;;;;;;;;;5094576;28;19950;-75
2021/12/21 08:51:38;;;;;;;;;;;;;;;;;;5096136;28;19939;-76
2021/12/21 08:54:03;;;;;;;;;;;;;;;;;;5075193;28;19916;-75
2021/12/21 08:56:28;;;;;;;;;;;;;;;;;;5074110;28;20057;-76
2021/12/21 08:58:54;;;;;;;;;;;;;;;;;;5073198;28;20281;-75
2021/12/21 09:01:19;;;;;;;;;;;;;;;;;;5074229;28;19995;-76
2021/12/21 09:03:45;;;;;;;;;;;;;;;;;;5101179;28;19989;-76
2021/12/21 09:06:11;;;;;;;;;;;;;;;;;;5115416;28;19915;-77
2021/12/21 09:08:36;;;;;;;;;;;;;;;;;;5113642;28;19915;-78
2021/12/21 09:11:05;;;;;;;;;;;;;;;;;;5098549;28;20368;-78
2021/12/21 09:13:31;;;;;;;;;;;;;;;;;;5096288;28;19916;-75
2021/12/21 09:15:56;;;;;;;;;;;;;;;;;;5095169;28;19916;-76
2021/12/21 09:18:22;;;;;;;;;;;;;;;;;;5093573;28;19916;-76
2021/12/21 09:20:47;;;;;;;;;;;;;;;;;;5094155;28;20361;-74
2021/12/21 09:23:12;;;;;;;;;;;;;;;;;;5095136;28;19975;-77
2021/12/21 09:25:38;;;;;;;;;;;;;;;;;;5096278;28;20014;-81
2021/12/21 09:28:03;;;;;;;;;;;;;;;;;;5101228;28;19937;-80
2021/12/21 09:30:29;;;;;;;;;;;;;;;;;;5101770;28;20373;-79
2021/12/21 09:32:54;;;;;;;;;;;;;;;;;;5099375;28;19931;-81
2021/12/21 09:35:21;;;;;;;;;;;;;;;;;;5099022;28;19962;-79
2021/12/21 09:37:46;;;;;;;;;;;;;;;;;;5097720;28;20385;-78
2021/12/21 09:40:14;;;;;;;;;;;;;;;;;;5099205;28;19926;-80
2021/12/21 09:42:40;;;;;;;;;;;;;;;;;;5099271;28;19942;-78
2021/12/21 09:45:05;;;;;;;;;;;;;;;;;;5098316;28;19924;-80
2021/12/21 09:47:32;;;;;;;;;;;;;;;;;;5095826;28;20003;-77
2021/12/21 09:49:57;;;;;;;;;;;;;;;;;;5094905;28;19920;-75
2021/12/21 09:52:23;;;;;;;;;;;;;;;;;;5095186;28;19916;-77
2021/12/21 09:54:49;;;;;;;;;;;;;;;;;;5095186;28;20386;-76
2021/12/21 09:57:17;;;;;;;;;;;;;;;;;;5093878;28;19931;-78
2021/12/21 09:59:43;;;;;;;;;;;;;;;;;;5093067;28;19916;-77
2021/12/21 10:02:08;;;;;;;;;;;;;;;;;;5093749;28;19955;-76
2021/12/21 10:04:44;;;;;;;;;;;;;;;;;;5094013;28;19967;-76
2021/12/21 10:07:10;;;;;;;;;;;;;;;;;;5096155;28;20324;-76
2021/12/21 10:09:36;;;;;;;;;;;;;;;;;;5096921;28;19966;-77
2021/12/21 10:12:01;;;;;;;;;;;;;;;;;;5097991;28;20022;-77
2021/12/21 10:14:29;;;;;;;;;;;;;;;;;;5115420;28;20302;-76
2021/12/21 10:17:01;;;;;;;;;;;;;;;;;;5118298;28;19916;-75
2021/12/21 10:19:26;;;;;;;;;;;;;;;;;;5099721;28;20377;-76
2021/12/21 10:21:51;;;;;;;;;;;;;;;;;;5097507;28;19916;-76
2021/12/21 10:24:24;;;;;;;;;;;;;;;;;;5097120;28;19942;-76
2021/12/21 10:26:51;;;;;;;;;;;;;;;;;;5097443;28;19920;-76
2021/12/21 10:29:16;;;;;;;;;;;;;;;;;;5097412;28;19923;-76
2021/12/21 10:31:44;;;;;;;;;;;;;;;;;;5097284;28;19916;-76
2021/12/21 10:34:11;;;;;;;;;;;;;;;;;;5097444;28;20346;-76
2021/12/21 10:36:43;;;;;;;;;;;;;;;;;;5095544;28;19962;-76
2021/12/21 10:39:09;;;;;;;;;;;;;;;;;;5095942;28;19920;-76
2021/12/21 10:41:36;;;;;;;;;;;;;;;;;;5097330;28;19935;-75
2021/12/21 10:44:09;;;;;;;;;;;;;;;;;;5096382;28;20037;-75
2021/12/21 10:46:36;;;;;;;;;;;;;;;;;;5097453;28;19920;-76
2021/12/21 10:49:18;;;;;;;;;;;;;;;;;;5096274;28;20389;-76
2021/12/21 10:51:51;;;;;;;;;;;;;;;;;;5097308;28;19923;-74
2021/12/21 10:54:27;;;;;;;;;;;;;;;;;;5096854;28;20323;-74
2021/12/21 10:56:56;;;;;;;;;;;;;;;;;;5096787;28;19955;-74
2021/12/21 10:59:27;;;;;;;;;;;;;;;;;;5096939;28;19912;-74
2021/12/21 11:01:53;;;;;;;;;;;;;;;;;;5096912;28;20308;-74
2021/12/21 11:04:21;;;;;;;;;;;;;;;;;;5096806;28;19916;-74
2021/12/21 11:06:49;;;;;;;;;;;;;;;;;;5095838;28;19920;-74
2021/12/21 11:09:15;;;;;;;;;;;;;;;;;;5096596;28;20366;-74
2021/12/21 11:11:48;;;;;;;;;;;;;;;;;;5095531;28;19923;-74
2021/12/21 11:14:17;;;;;;;;;;;;;;;;;;5094761;28;19916;-74
2021/12/21 11:16:42;;;;;;;;;;;;;;;;;;5095789;28;20019;-74
2021/12/21 11:19:09;;;;;;;;;;;;;;;;;;5095540;28;19959;-74
2021/12/21 11:21:35;;;;;;;;;;;;;;;;;;5096548;28;19981;-74
2021/12/21 11:24:01;;;;;;;;;;;;;;;;;;5096485;28;20407;-74
2021/12/21 11:26:27;;;;;;;;;;;;;;;;;;5096097;28;19927;-75
2021/12/21 11:28:53;;;;;;;;;;;;;;;;;;5096188;28;20003;-74
2021/12/21 11:31:19;;;;;;;;;;;;;;;;;;5096511;28;19939;-74
2021/12/21 11:33:46;;;;;;;;;;;;;;;;;;5095812;28;19920;-74
2021/12/21 11:38:59;;;;;;;;;;;;;;;;;;5096215;28;19916;-74
2021/12/21 11:41:25;;;;;;;;;;;;;;;;;;5096275;28;19926;-74
2021/12/21 11:43:54;;;;;;;;;;;;;;;;;;5096092;28;19970;-74
2021/12/21 11:46:26;;;;;;;;;;;;;;;;;;5096079;28;19969;-74
2021/12/21 11:48:57;;;;;;;;;;;;;;;;;;5094662;28;19959;-74
2021/12/21 11:51:24;;;;;;;;;;;;;;;;;;5096060;28;19924;-74
2021/12/21 11:53:49;;;;;;;;;;;;;;;;;;5095708;28;19916;-74
2021/12/21 11:56:19;;;;;;;;;;;;;;;;;;5095797;28;20019;-74
2021/12/21 11:58:45;;;;;;;;;;;;;;;;;;5095881;28;20374;-74
2021/12/21 12:01:23;;;;;;;;;;;;;;;;;;5095534;28;19923;-74
2021/12/21 12:03:54;;;;;;;;;;;;;;;;;;5094629;28;20007;-74
2021/12/21 12:06:20;;;;;;;;;;;;;;;;;;5095670;28;19916;-74
2021/12/21 12:08:50;;;;;;;;;;;;;;;;;;5095607;28;20019;-74
2021/12/21 12:11:23;;;;;;;;;;;;;;;;;;5095603;28;19920;-74
2021/12/21 12:13:49;;;;;;;;;;;;;;;;;;5093951;28;19916;-74
2021/12/21 12:16:16;;;;;;;;;;;;;;;;;;5095420;28;20302;-74
2021/12/21 12:18:49;;;;;;;;;;;;;;;;;;5095503;28;19923;-74
2021/12/21 12:21:14;;;;;;;;;;;;;;;;;;5095575;28;19920;-74
2021/12/21 12:23:43;;;;;;;;;;;;;;;;;;5095341;28;20316;-74
2021/12/21 12:26:19;;;;;;;;;;;;;;;;;;5095266;28;19916;-74
2021/12/21 12:28:44;;;;;;;;;;;;;;;;;;5095134;28;20437;-74
2021/12/21 12:31:10;;;;;;;;;;;;;;;;;;5095216;28;19958;-74
2021/12/21 12:33:39;;;;;;;;;;;;;;;;;;5095045;28;19934;-74
2021/12/21 12:36:05;;;;;;;;;;;;;;;;;;5094618;28;19916;-74
2021/12/21 12:38:30;;;;;;;;;;;;;;;;;;5094865;28;20273;-74
2021/12/21 12:40:57;;;;;;;;;;;;;;;;;;5095013;28;19916;-74
2021/12/21 12:43:24;;;;;;;;;;;;;;;;;;5079274;28;20003;-74
2021/12/21 12:45:51;;;;;;;;;;;;;;;;;;5073045;28;19928;-74
2021/12/21 12:48:32;;;;;;;;;;;;;;;;;;5074261;28;19927;-75
2021/12/21 12:51:04;;;;;;;;;;;;;;;;;;5074406;28;19916;-76
2021/12/21 12:53:42;;;;;;;;;;;;;;;;;;5074330;28;20003;-74
2021/12/21 12:56:09;;;;;;;;;;;;;;;;;;5074257;28;20358;-74
2021/12/21 12:58:37;;;;;;;;;;;;;;;;;;5074318;28;19908;-74
2021/12/21 13:01:10;;;;;;;;;;;;;;;;;;5081799;28;19923;-75
2021/12/21 13:03:37;;;;;;;;;;;;;;;;;;5093162;28;19942;-74
2021/12/21 13:06:10;;;;;;;;;;;;;;;;;;5094252;28;20378;-75
2021/12/21 13:08:35;;;;;;;;;;;;;;;;;;5094452;28;19970;-74
2021/12/21 13:11:01;;;;;;;;;;;;;;;;;;5093611;28;19959;-74
2021/12/21 13:13:34;;;;;;;;;;;;;;;;;;5094540;28;19923;-75
2021/12/21 13:16:04;;;;;;;;;;;;;;;;;;5094124;28;20014;-76
2021/12/21 13:18:29;;;;;;;;;;;;;;;;;;5094408;28;19916;-76
2021/12/21 13:20:54;;;;;;;;;;;;;;;;;;5094267;28;19965;-76
2021/12/21 13:23:21;;;;;;;;;;;;;;;;;;5094139;28;19969;-76
2021/12/21 13:25:53;;;;;;;;;;;;;;;;;;5093989;28;19920;-76
2021/12/21 13:28:18;;;;;;;;;;;;;;;;;;5092975;28;20357;-76
2021/12/21 13:30:47;;;;;;;;;;;;;;;;;;5093874;28;19959;-76
2021/12/21 13:33:21;;;;;;;;;;;;;;;;;;5094178;28;19916;-76
2021/12/21 13:35:46;;;;;;;;;;;;;;;;;;5093382;28;19970;-76
2021/12/21 13:38:16;;;;;;;;;;;;;;;;;;5093872;28;19951;-76
2021/12/21 13:40:41;;;;;;;;;;;;;;;;;;5093461;28;19920;-76
2021/12/21 13:43:10;;;;;;;;;;;;;;;;;;5076105;28;19916;-76
2021/12/21 13:45:37;;;;;;;;;;;;;;;;;;5093920;28;19924;-76
2021/12/21 13:48:02;;;;;;;;;;;;;;;;;;5093709;28;20358;-76
2021/12/21 13:50:29;;;;;;;;;;;;;;;;;;5107615;28;19966;-78
2021/12/21 13:52:55;;;;;;;;;;;;;;;;;;5114095;28;19954;-78
2021/12/21 13:55:30;;;;;;;;;;;;;;;;;;5113728;28;19916;-77
2021/12/21 13:57:56;;;;;;;;;;;;;;;;;;5114035;28;19985;-78
2021/12/21 14:00:26;;;;;;;;;;;;;;;;;;5113946;28;19968;-78
2021/12/21 14:03:02;;;;;;;;;;;;;;;;;;5114280;28;20406;-78
2021/12/21 14:05:41;;;;;;;;;;;;;;;;;;5109912;28;20430;-78
2021/12/21 14:08:07;;;;;;;;;;;;;;;;;;5092401;28;19923;-77
2021/12/21 14:10:38;;;;;;;;;;;;;;;;;;5093786;28;19916;-78
2021/12/21 14:13:03;;;;;;;;;;;;;;;;;;5093857;28;19916;-77
2021/12/21 14:15:35;;;;;;;;;;;;;;;;;;5093784;28;20018;-77
2021/12/21 14:18:11;;;;;;;;;;;;;;;;;;5093555;28;20274;-78
2021/12/21 14:20:37;;;;;;;;;;;;;;;;;;5093533;28;20007;-77
2021/12/21 14:23:02;;;;;;;;;;;;;;;;;;5093633;28;19962;-78
2021/12/21 14:25:27;;;;;;;;;;;;;;;;;;5093426;28;19920;-78
2021/12/21 14:27:53;;;;;;;;;;;;;;;;;;5093404;28;19922;-78
2021/12/21 14:30:18;;;;;;;;;;;;;;;;;;5093644;28;19912;-78
2021/12/21 14:35:32;;;;;;;;;;;;;;;;;;5093515;28;19916;-77
2021/12/21 14:38:08;;;;;;;;;;;;;;;;;;5093363;28;19916;-78
2021/12/21 14:40:41;;;;;;;;;;;;;;;;;;5093476;28;19912;-77
2021/12/21 14:43:06;;;;;;;;;;;;;;;;;;5093425;28;20423;-77
2021/12/21 14:45:31;;;;;;;;;;;;;;;;;;5093529;28;19920;-77
2021/12/21 14:47:56;;;;;;;;;;;;;;;;;;5093004;28;19977;-78
2021/12/21 14:50:30;;;;;;;;;;;;;;;;;;5093394;28;19916;-78
2021/12/21 14:52:59;;;;;;;;;;;;;;;;;;5093123;28;19920;-78
2021/12/21 14:55:29;;;;;;;;;;;;;;;;;;5097313;28;19932;-77
2021/12/21 14:57:59;;;;;;;;;;;;;;;;;;5096965;28;19962;-77
2021/12/21 15:00:33;;;;;;;;;;;;;;;;;;5096802;28;20309;-77
2021/12/21 15:03:01;;;;;;;;;;;;;;;;;;5097821;28;19916;-77
2021/12/21 15:05:28;;;;;;;;;;;;;;;;;;5117190;28;19920;-77
2021/12/21 15:07:54;;;;;;;;;;;;;;;;;;5103216;28;20364;-78
2021/12/21 15:10:22;;;;;;;;;;;;;;;;;;5096474;28;20255;-77
2021/12/21 15:12:47;;;;;;;;;;;;;;;;;;5096729;28;20358;-78
2021/12/21 15:15:14;;;;;;;;;;;;;;;;;;5095511;28;19922;-78
2021/12/21 15:17:39;;;;;;;;;;;;;;;;;;5096590;28;19938;-78
2021/12/21 15:20:05;;;;;;;;;;;;;;;;;;5096593;28;20075;-78
2021/12/21 15:22:30;;;;;;;;;;;;;;;;;;5096630;28;19916;-77
2021/12/21 15:24:55;;;;;;;;;;;;;;;;;;5096473;28;19924;-77
2021/12/21 15:27:21;;;;;;;;;;;;;;;;;;5096448;28;19916;-77
2021/12/21 15:29:46;;;;;;;;;;;;;;;;;;5096388;28;19974;-78
2021/12/21 15:32:15;;;;;;;;;;;;;;;;;;5096581;28;19923;-77
2021/12/21 15:34:44;;;;;;;;;;;;;;;;;;5096403;28;20026;-78
2021/12/21 15:37:10;;;;;;;;;;;;;;;;;;5096115;28;19916;-78
2021/12/21 15:39:36;;;;;;;;;;;;;;;;;;5095560;28;19916;-77
2021/12/21 15:42:12;;;;;;;;;;;;;;;;;;5096272;28;19951;-78
2021/12/21 15:44:42;;;;;;;;;;;;;;;;;;5094705;28;19920;-77
2021/12/21 15:47:07;;;;;;;;;;;;;;;;;;5096039;28;19916;-78
2021/12/21 15:49:33;;;;;;;;;;;;;;;;;;5095910;28;19920;-78
2021/12/21 15:51:58;;;;;;;;;;;;;;;;;;5096030;28;19923;-77
2021/12/21 15:54:23;;;;;;;;;;;;;;;;;;5094005;28;19916;-78
2021/12/21 15:56:48;;;;;;;;;;;;;;;;;;5095846;28;19945;-78
2021/12/21 15:59:14;;;;;;;;;;;;;;;;;;5095714;28;20010;-77
2021/12/21 16:01:39;;;;;;;;;;;;;;;;;;5095838;28;19916;-77
2021/12/21 16:04:04;;;;;;;;;;;;;;;;;;5095294;28;19920;-78
2021/12/21 16:06:30;;;;;;;;;;;;;;;;;;5095700;28;20019;-77
2021/12/21 16:08:55;;;;;;;;;;;;;;;;;;5094715;28;19916;-77
2021/12/21 16:11:20;;;;;;;;;;;;;;;;;;5094237;28;19916;-77
2021/12/21 16:13:46;;;;;;;;;;;;;;;;;;5095282;28;20304;-77
2021/12/21 16:16:11;;;;;;;;;;;;;;;;;;5093445;28;19966;-78
2021/12/21 16:18:37;;;;;;;;;;;;;;;;;;5094157;28;19916;-77
2021/12/21 16:21:03;;;;;;;;;;;;;;;;;;5095522;28;19919;-77
2021/12/21 16:23:28;;;;;;;;;;;;;;;;;;5095494;28;19916;-76
2021/12/21 16:25:53;;;;;;;;;;;;;;;;;;5095157;28;19920;-77
2021/12/21 16:28:20;;;;;;;;;;;;;;;;;;5095259;28;19923;-78
2021/12/21 16:30:47;;;;;;;;;;;;;;;;;;5095251;28;19922;-78
2021/12/21 16:33:13;;;;;;;;;;;;;;;;;;5095297;28;19920;-77
2021/12/21 16:35:39;;;;;;;;;;;;;;;;;;5095128;28;19916;-77
2021/12/21 16:38:05;;;;;;;;;;;;;;;;;;5094494;28;20015;-77
2021/12/21 16:40:30;;;;;;;;;;;;;;;;;;5095075;28;19920;-77
2021/12/21 16:42:59;;;;;;;;;;;;;;;;;;5095104;28;19963;-77
2021/12/21 16:45:26;;;;;;;;;;;;;;;;;;5094928;28;19924;-77
2021/12/21 16:47:51;;;;;;;;;;;;;;;;;;5094206;28;19920;-77
2021/12/21 16:50:17;;;;;;;;;;;;;;;;;;5094729;28;19923;-77
2021/12/21 16:52:43;;;;;;;;;;;;;;;;;;5094558;28;19923;-78
2021/12/21 16:55:08;;;;;;;;;;;;;;;;;;5094835;28;19959;-78
2021/12/21 16:57:33;;;;;;;;;;;;;;;;;;5094676;28;19969;-78
2021/12/21 16:59:59;;;;;;;;;;;;;;;;;;5094691;28;20293;-78
2021/12/21 17:02:26;;;;;;;;;;;;;;;;;;5094607;28;20381;-78
2021/12/21 17:04:51;;;;;;;;;;;;;;;;;;5094112;28;19956;-78
2021/12/21 17:07:17;;;;;;;;;;;;;;;;;;5094569;28;20026;-78
2021/12/21 17:09:42;;;;;;;;;;;;;;;;;;5094603;28;19916;-77
2021/12/21 17:12:08;;;;;;;;;;;;;;;;;;5093347;28;19959;-77
2021/12/21 17:14:33;;;;;;;;;;;;;;;;;;5094477;28;19920;-77
2021/12/21 17:16:58;;;;;;;;;;;;;;;;;;5093788;28;19922;-77
2021/12/21 17:19:24;;;;;;;;;;;;;;;;;;5094467;28;19916;-78
2021/12/21 17:21:49;;;;;;;;;;;;;;;;;;5094384;28;19969;-78
2021/12/21 17:24:14;;;;;;;;;;;;;;;;;;5094405;28;19920;-78
2021/12/21 17:26:40;;;;;;;;;;;;;;;;;;5094168;28;19916;-78
2021/12/21 17:29:05;;;;;;;;;;;;;;;;;;5092711;28;19916;-77
2021/12/21 17:31:31;;;;;;;;;;;;;;;;;;5093478;28;19942;-77
2021/12/21 17:33:58;;;;;;;;;;;;;;;;;;5093049;28;20328;-77
2021/12/21 17:36:25;;;;;;;;;;;;;;;;;;5093522;28;19927;-77
2021/12/21 17:38:50;;;;;;;;;;;;;;;;;;5093457;28;19916;-77
2021/12/21 17:41:16;;;;;;;;;;;;;;;;;;5093914;28;19923;-79